createdAt,value
2019-03-04T00:07:34.134Z,8.70
2019-03-04T00:12:41.344Z,8.70
2019-03-04T00:17:48.376Z,8.70
2019-03-04T00:22:58.186Z,8.70
2019-03-04T00:28:05.047Z,8.80
2019-03-04T00:33:15.963Z,8.80
2019-03-04T00:38:20.978Z,8.80
2019-03-04T00:43:33.398Z,8.80
2019-03-04T00:48:47.056Z,8.90
2019-03-04T00:54:02.124Z,8.90
2019-03-04T00:59:12.010Z,8.90
2019-03-04T01:04:35.139Z,8.90
2019-03-04T01:15:06.919Z,8.90
2019-03-04T01:20:31.171Z,8.90
2019-03-04T01:25:37.941Z,8.90
2019-03-04T01:30:44.392Z,8.80
2019-03-04T01:35:49.104Z,8.80
2019-03-04T01:46:24.022Z,8.80
2019-03-04T01:51:33.910Z,8.80
2019-03-04T01:56:43.380Z,8.80
2019-03-04T02:01:52.148Z,8.80
2019-03-04T02:07:04.688Z,8.80
2019-03-04T02:12:18.459Z,8.80
2019-03-04T02:17:22.093Z,8.80
2019-03-04T02:22:27.354Z,8.70
2019-03-04T02:27:37.797Z,8.70
2019-03-04T02:32:42.222Z,8.70
2019-03-04T02:37:47.386Z,8.70
2019-03-04T02:42:53.450Z,8.60
2019-03-04T02:47:59.887Z,8.60
2019-03-04T02:53:11.016Z,8.60
2019-03-04T02:58:14.587Z,8.60
2019-03-04T03:03:18.312Z,8.70
2019-03-04T03:08:25.036Z,8.70
2019-03-04T03:13:32.497Z,8.80
2019-03-04T03:18:38.284Z,8.80
2019-03-04T03:23:54.592Z,8.80
2019-03-04T03:28:58.596Z,8.80
2019-03-04T03:34:05.017Z,8.80
2019-03-04T03:39:14.977Z,8.80
2019-03-04T03:44:25.600Z,8.80
2019-03-04T03:49:33.844Z,8.80
2019-03-04T03:54:43.324Z,8.80
2019-03-04T03:59:47.411Z,8.80
2019-03-04T04:04:57.590Z,8.80
2019-03-04T04:10:04.318Z,8.90
2019-03-04T04:15:13.194Z,8.90
2019-03-04T04:20:17.078Z,8.90
2019-03-04T04:25:20.417Z,8.90
2019-03-04T04:30:31.610Z,8.90
2019-03-04T04:35:36.762Z,8.90
2019-03-04T04:40:40.539Z,8.90
2019-03-04T04:45:45.533Z,8.90
2019-03-04T04:50:50.887Z,9.00
2019-03-04T04:55:55.151Z,9.00
2019-03-04T05:00:59.901Z,9.00
2019-03-04T05:06:05.567Z,9.00
2019-03-04T05:11:09.670Z,9.00
2019-03-04T05:16:13.014Z,9.10
2019-03-04T05:21:17.259Z,9.00
2019-03-04T05:26:20.927Z,9.10
2019-03-04T05:31:26.310Z,9.10
2019-03-04T05:36:31.963Z,9.10
2019-03-04T05:41:37.117Z,9.10
2019-03-04T05:46:42.678Z,9.20
2019-03-04T05:51:46.669Z,9.20
2019-03-04T05:56:50.056Z,9.20
2019-03-04T06:01:56.773Z,9.20
2019-03-04T06:07:01.801Z,9.20
2019-03-04T06:12:06.160Z,9.30
2019-03-04T06:17:12.668Z,9.30
2019-03-04T06:22:17.653Z,9.40
2019-03-04T06:27:21.097Z,9.40
2019-03-04T06:32:25.586Z,9.50
2019-03-04T06:37:30.742Z,9.50
2019-03-04T06:42:34.342Z,9.50
2019-03-04T06:47:38.792Z,9.60
2019-03-04T06:52:42.710Z,9.60
2019-03-04T06:57:46.073Z,9.70
2019-03-04T07:02:51.069Z,9.80
2019-03-04T07:07:56.021Z,9.80
2019-03-04T07:13:01.554Z,9.90
2019-03-04T07:18:04.930Z,10.00
2019-03-04T07:23:08.333Z,10.10
2019-03-04T07:28:11.666Z,10.10
2019-03-04T07:33:15.610Z,10.20
2019-03-04T07:38:23.252Z,10.20
2019-03-04T07:43:26.586Z,10.30
2019-03-04T07:48:30.199Z,10.50
2019-03-04T07:53:35.153Z,10.70
2019-03-04T07:58:43.382Z,11.00
2019-03-04T08:03:46.988Z,11.30
2019-03-04T08:09:20.310Z,11.70
2019-03-04T08:14:24.472Z,11.90
2019-03-04T08:19:29.385Z,11.80
2019-03-04T08:24:34.243Z,11.80
2019-03-04T08:29:38.769Z,12.00
2019-03-04T08:34:42.198Z,12.30
2019-03-04T08:39:46.859Z,12.70
2019-03-04T08:44:51.217Z,13.50
2019-03-04T08:49:57.471Z,15.00
2019-03-04T08:55:13.395Z,16.80
2019-03-04T09:00:30.141Z,17.60
2019-03-04T09:05:34.576Z,17.60
2019-03-04T09:10:38.025Z,18.20
2019-03-04T09:15:41.384Z,18.80
2019-03-04T09:20:47.790Z,19.20
2019-03-04T09:25:57.798Z,19.70
2019-03-04T09:31:01.778Z,20.10
2019-03-04T09:36:06.752Z,20.10
2019-03-04T09:41:16.644Z,20.70
2019-03-04T09:46:24.488Z,21.80
2019-03-04T09:51:27.835Z,23.90
2019-03-04T09:56:36.590Z,25.90
2019-03-04T10:01:43.202Z,26.20
2019-03-04T10:07:08.103Z,27.50
2019-03-04T10:12:17.724Z,27.00
2019-03-04T10:17:53.020Z,25.30
2019-03-04T10:23:17.346Z,24.10
2019-03-04T10:29:02.149Z,24.50
2019-03-04T10:34:41.858Z,25.00
2019-03-04T10:40:00.731Z,24.80
2019-03-04T10:45:18.272Z,24.40
2019-03-04T10:50:21.794Z,23.80
2019-03-04T10:55:27.052Z,22.10
2019-03-04T11:00:30.317Z,21.00
2019-03-04T11:05:34.381Z,19.90
2019-03-04T11:10:40.654Z,20.80
2019-03-04T11:15:44.853Z,21.70
2019-03-04T11:20:49.876Z,22.80
2019-03-04T11:25:53.248Z,23.10
2019-03-04T11:30:57.244Z,23.90
2019-03-04T11:36:01.005Z,24.70
2019-03-04T11:41:05.952Z,23.60
2019-03-04T11:46:09.317Z,22.60
2019-03-04T11:51:12.707Z,21.20
2019-03-04T11:56:16.765Z,19.30
2019-03-04T12:01:22.694Z,18.20
2019-03-04T12:06:25.979Z,17.30
2019-03-04T12:11:37.954Z,16.70
2019-03-04T12:16:35.572Z,16.30
2019-03-04T12:21:40.338Z,16.00
2019-03-04T12:26:44.939Z,16.00
2019-03-04T12:31:56.072Z,16.80
2019-03-04T12:36:59.469Z,17.60
2019-03-04T12:42:02.834Z,18.60
2019-03-04T12:52:29.179Z,19.80
2019-03-04T12:57:34.654Z,19.40
2019-03-04T13:02:40.416Z,19.20
2019-03-04T13:07:43.704Z,18.50
2019-03-04T13:12:47.098Z,18.00
2019-03-04T13:17:50.613Z,17.70
2019-03-04T13:22:54.006Z,17.50
2019-03-04T13:28:07.310Z,17.20
2019-03-04T13:33:04.469Z,17.00
2019-03-04T13:38:08.835Z,16.80
2019-03-04T13:43:12.200Z,16.80
2019-03-04T13:48:18.366Z,16.80
2019-03-04T13:53:23.669Z,16.90
2019-03-04T13:58:26.781Z,17.00
2019-03-04T14:03:31.337Z,17.00
2019-03-04T14:08:34.793Z,16.80
2019-03-04T14:13:38.714Z,16.80
2019-03-04T14:18:43.397Z,16.90
2019-03-04T14:23:49.157Z,16.80
2019-03-04T14:28:54.293Z,16.70
2019-03-04T14:34:02.357Z,16.60
2019-03-04T14:39:06.586Z,16.50
2019-03-04T14:44:13.561Z,16.40
2019-03-04T14:49:24.293Z,16.50
2019-03-04T14:54:25.183Z,16.60
2019-03-04T14:59:29.347Z,16.50
2019-03-04T15:04:34.703Z,16.30
2019-03-04T15:09:38.038Z,16.20
2019-03-04T15:14:43.420Z,16.10
2019-03-04T15:19:46.954Z,16.00
2019-03-04T15:24:50.275Z,15.90
2019-03-04T15:29:54.208Z,15.80
2019-03-04T15:34:58.585Z,15.80
2019-03-04T15:40:04.157Z,15.80
2019-03-04T15:45:11.633Z,15.80
2019-03-04T15:50:15.976Z,15.80
2019-03-04T15:55:21.767Z,15.80
2019-03-04T16:00:27.605Z,15.70
2019-03-04T16:05:32.496Z,15.70
2019-03-04T16:10:38.997Z,15.60
2019-03-04T16:15:49.071Z,15.70
2019-03-04T16:20:53.722Z,15.60
2019-03-04T16:26:00.452Z,15.50
2019-03-04T16:31:14.326Z,15.60
2019-03-04T16:36:28.310Z,15.20
2019-03-04T16:41:33.190Z,15.10
2019-03-04T16:46:37.062Z,14.90
2019-03-04T16:51:40.727Z,14.80
2019-03-04T16:56:50.603Z,14.70
2019-03-04T17:01:59.407Z,14.70
2019-03-04T17:07:02.733Z,14.60
2019-03-04T17:12:11.250Z,14.50
2019-03-04T17:17:14.459Z,14.50
2019-03-04T17:22:21.574Z,14.40
2019-03-04T17:27:24.963Z,14.30
2019-03-04T17:32:30.955Z,14.20
2019-03-04T17:37:34.349Z,14.20
2019-03-04T17:42:38.277Z,14.20
2019-03-04T17:47:41.734Z,14.20
2019-03-04T17:52:45.131Z,14.20
2019-03-04T17:57:48.510Z,14.30
2019-03-04T18:02:52.874Z,14.40
2019-03-04T18:07:56.705Z,14.40
2019-03-04T18:13:02.768Z,14.50
2019-03-04T18:18:18.359Z,14.60
2019-03-04T18:23:30.455Z,14.60
2019-03-04T18:28:57.453Z,14.70
2019-03-04T18:34:08.441Z,14.70
2019-03-04T18:39:29.104Z,14.70
2019-03-04T18:44:43.498Z,14.70
2019-03-04T18:49:51.756Z,14.70
2019-03-04T19:00:31.701Z,14.80
2019-03-04T19:05:35.027Z,14.90
2019-03-04T19:10:40.701Z,15.00
2019-03-04T19:15:44.216Z,15.00
2019-03-04T19:20:48.449Z,15.00
2019-03-04T19:25:53.087Z,15.10
2019-03-04T19:30:58.067Z,15.00
2019-03-04T19:36:04.788Z,15.00
2019-03-04T19:41:10.068Z,15.00
2019-03-04T19:46:15.238Z,14.90
2019-03-04T19:51:18.728Z,14.90
2019-03-04T19:56:23.118Z,14.80
2019-03-04T20:01:26.786Z,14.80
2019-03-04T20:06:33.135Z,14.70
2019-03-04T20:11:36.443Z,14.60
2019-03-04T20:16:41.756Z,14.60
2019-03-04T20:21:54.227Z,14.50
2019-03-04T20:26:58.511Z,14.50
2019-03-04T20:32:02.735Z,14.40
2019-03-04T20:37:06.875Z,14.40
2019-03-04T20:42:11.857Z,14.30
2019-03-04T20:47:17.493Z,14.30
2019-03-04T20:52:21.037Z,14.30
2019-03-04T20:57:26.237Z,14.20
2019-03-04T21:02:29.615Z,14.10
2019-03-04T21:07:34.271Z,14.00
2019-03-04T21:12:39.857Z,14.00
2019-03-04T21:17:44.333Z,13.90
2019-03-04T21:22:47.995Z,13.80
2019-03-04T21:27:52.532Z,13.80
2019-03-04T21:32:55.813Z,13.70
2019-03-04T21:38:00.156Z,13.70
2019-03-04T21:43:23.417Z,13.60
2019-03-04T21:48:37.261Z,13.50
2019-03-04T21:53:46.448Z,13.40
2019-03-04T21:58:49.830Z,13.30
2019-03-04T22:03:58.000Z,13.20
2019-03-04T22:09:02.217Z,13.10
2019-03-04T22:14:05.827Z,13.00
2019-03-04T22:19:09.433Z,13.00
2019-03-04T22:24:14.174Z,13.00
2019-03-04T22:29:18.644Z,13.00
2019-03-04T22:34:24.951Z,13.00
2019-03-04T22:39:28.920Z,13.00
2019-03-04T22:44:38.073Z,13.00
2019-03-04T22:49:43.655Z,12.90
2019-03-04T22:54:52.637Z,12.90
2019-03-04T22:59:56.747Z,12.80
2019-03-04T23:05:01.463Z,12.80
2019-03-04T23:10:08.338Z,12.70
2019-03-04T23:15:17.572Z,12.70
2019-03-04T23:20:25.966Z,12.60
2019-03-04T23:25:30.426Z,12.40
2019-03-04T23:30:37.085Z,12.30
2019-03-04T23:35:40.986Z,12.10
2019-03-04T23:40:46.697Z,11.90
2019-03-04T23:45:49.993Z,11.70
2019-03-04T23:50:54.544Z,11.50
2019-03-04T23:55:58.064Z,11.20
